Lindale, Ohio
Current Conditions -  °F | °C
As of 2:43 PM on Friday 31 Oct 2014 (Local Time) from KLUK Reporting Station
Moderate Rain Moderate Rain  
Wind Chill: 35°   Ceiling: 3500
Heat Index: 42°   Visibility: 6mi
Dew Point: 38°   Wind: 14mph
Humidity: 85%   Direction: 350°N
Pressure: 29.94"   Gusts: 20mph
Location:  39.0167°N, 84.2069°W
Report Text: KLUK 311843Z 35012G17KT 6SM RA BR SCT017 BKN035 OVC045 06/03 A2994 RMK AO2 P0003 T00560033
Loading
Personal Weather Stations






























Interactive Weather Map
Tropical Storm Tracking
New forecast layout! Learn more

10-Day Weather Forecast

Advertisements
Track Severe Weather on mobile